sensor_id;sensor_type;location;lat;lon;timestamp;temperature;humidity
20700;DHT22;10511;51.232;9.420;2024-02-26T00:02:02;2.80;99.90
20700;DHT22;10511;51.232;9.420;2024-02-26T00:04:29;2.80;99.90
20700;DHT22;10511;51.232;9.420;2024-02-26T00:06:56;2.80;99.90
20700;DHT22;10511;51.232;9.420;2024-02-26T00:09:23;2.80;99.90
20700;DHT22;10511;51.232;9.420;2024-02-26T00:11:50;2.70;99.90
20700;DHT22;10511;51.232;9.420;2024-02-26T00:14:17;2.70;99.90
20700;DHT22;10511;51.232;9.420;2024-02-26T00:16:44;2.70;99.90
20700;DHT22;10511;51.232;9.420;2024-02-26T00:19:12;2.80;99.90
20700;DHT22;10511;51.232;9.420;2024-02-26T00:21:40;2.80;99.90
20700;DHT22;10511;51.232;9.420;2024-02-26T00:24:07;2.80;99.90
20700;DHT22;10511;51.232;9.420;2024-02-26T00:26:34;2.80;99.90
20700;DHT22;10511;51.232;9.420;2024-02-26T00:29:01;2.90;99.90
20700;DHT22;10511;51.232;9.420;2024-02-26T00:31:28;2.90;99.90
20700;DHT22;10511;51.232;9.420;2024-02-26T00:33:55;2.90;99.90
20700;DHT22;10511;51.232;9.420;2024-02-26T00:36:23;2.90;99.90
20700;DHT22;10511;51.232;9.420;2024-02-26T00:38:50;2.90;99.90
20700;DHT22;10511;51.232;9.420;2024-02-26T00:41:17;2.90;99.90
20700;DHT22;10511;51.232;9.420;2024-02-26T00:43:44;2.90;99.90
20700;DHT22;10511;51.232;9.420;2024-02-26T00:46:11;2.90;99.90
20700;DHT22;10511;51.232;9.420;2024-02-26T00:48:37;2.90;99.90
20700;DHT22;10511;51.232;9.420;2024-02-26T00:51:04;2.90;99.90
20700;DHT22;10511;51.232;9.420;2024-02-26T00:53:33;2.90;99.90
20700;DHT22;10511;51.232;9.420;2024-02-26T00:56:00;2.90;99.90
20700;DHT22;10511;51.232;9.420;2024-02-26T00:58:27;2.90;99.90
20700;DHT22;10511;51.232;9.420;2024-02-26T01:00:53;2.90;99.90
20700;DHT22;10511;51.232;9.420;2024-02-26T01:03:20;2.90;99.90
20700;DHT22;10511;51.232;9.420;2024-02-26T01:05:47;2.90;99.90
20700;DHT22;10511;51.232;9.420;2024-02-26T01:08:14;3.00;99.90
20700;DHT22;10511;51.232;9.420;2024-02-26T01:10:42;3.00;99.90
20700;DHT22;10511;51.232;9.420;2024-02-26T01:13:09;3.00;99.90
20700;DHT22;10511;51.232;9.420;2024-02-26T01:15:36;3.00;99.90
20700;DHT22;10511;51.232;9.420;2024-02-26T01:18:03;3.00;99.90
20700;DHT22;10511;51.232;9.420;2024-02-26T01:20:30;3.00;99.90
20700;DHT22;10511;51.232;9.420;2024-02-26T01:22:57;2.90;99.90
20700;DHT22;10511;51.232;9.420;2024-02-26T01:25:24;3.00;99.90
20700;DHT22;10511;51.232;9.420;2024-02-26T01:27:52;2.90;99.90
20700;DHT22;10511;51.232;9.420;2024-02-26T01:30:19;2.90;99.90
20700;DHT22;10511;51.232;9.420;2024-02-26T01:32:46;3.00;99.90
20700;DHT22;10511;51.232;9.420;2024-02-26T01:35:13;3.00;99.90
20700;DHT22;10511;51.232;9.420;2024-02-26T01:37:39;3.00;99.90
20700;DHT22;10511;51.232;9.420;2024-02-26T01:40:07;3.00;99.90
20700;DHT22;10511;51.232;9.420;2024-02-26T01:42:36;3.00;99.90
20700;DHT22;10511;51.232;9.420;2024-02-26T01:45:06;3.00;99.90
20700;DHT22;10511;51.232;9.420;2024-02-26T01:47:34;3.00;99.90
20700;DHT22;10511;51.232;9.420;2024-02-26T01:50:01;3.00;99.90
20700;DHT22;10511;51.232;9.420;2024-02-26T01:52:28;3.00;99.90
20700;DHT22;10511;51.232;9.420;2024-02-26T01:54:55;3.00;99.90
20700;DHT22;10511;51.232;9.420;2024-02-26T01:57:22;3.00;99.90
20700;DHT22;10511;51.232;9.420;2024-02-26T01:59:49;3.10;99.90
20700;DHT22;10511;51.232;9.420;2024-02-26T02:02:17;3.10;99.90
20700;DHT22;10511;51.232;9.420;2024-02-26T02:04:44;3.10;99.90
20700;DHT22;10511;51.232;9.420;2024-02-26T02:07:12;3.10;99.90
20700;DHT22;10511;51.232;9.420;2024-02-26T02:09:39;3.10;99.90
20700;DHT22;10511;51.232;9.420;2024-02-26T02:12:07;3.10;99.90
20700;DHT22;10511;51.232;9.420;2024-02-26T02:14:34;3.10;99.90
20700;DHT22;10511;51.232;9.420;2024-02-26T02:17:01;3.10;99.90
20700;DHT22;10511;51.232;9.420;2024-02-26T02:19:29;3.10;99.90
20700;DHT22;10511;51.232;9.420;2024-02-26T02:21:57;3.10;99.90
20700;DHT22;10511;51.232;9.420;2024-02-26T02:24:24;3.10;99.90
20700;DHT22;10511;51.232;9.420;2024-02-26T02:26:51;3.20;99.90
20700;DHT22;10511;51.232;9.420;2024-02-26T02:29:18;3.10;99.90
20700;DHT22;10511;51.232;9.420;2024-02-26T02:31:45;3.10;99.90
20700;DHT22;10511;51.232;9.420;2024-02-26T02:34:12;3.10;99.90
20700;DHT22;10511;51.232;9.420;2024-02-26T02:36:49;3.10;99.90
20700;DHT22;10511;51.232;9.420;2024-02-26T02:39:17;3.10;99.90
20700;DHT22;10511;51.232;9.420;2024-02-26T02:41:44;3.10;99.90
20700;DHT22;10511;51.232;9.420;2024-02-26T02:44:11;3.10;99.90
20700;DHT22;10511;51.232;9.420;2024-02-26T02:46:38;3.10;99.90
20700;DHT22;10511;51.232;9.420;2024-02-26T02:49:08;3.10;99.90
20700;DHT22;10511;51.232;9.420;2024-02-26T02:51:35;3.10;99.90
20700;DHT22;10511;51.232;9.420;2024-02-26T02:54:02;3.10;99.90
20700;DHT22;10511;51.232;9.420;2024-02-26T02:56:30;3.10;99.90
20700;DHT22;10511;51.232;9.420;2024-02-26T02:58:57;3.10;99.90
20700;DHT22;10511;51.232;9.420;2024-02-26T03:01:24;3.10;99.90
20700;DHT22;10511;51.232;9.420;2024-02-26T03:03:50;3.10;99.90
20700;DHT22;10511;51.232;9.420;2024-02-26T03:06:17;3.10;99.90
20700;DHT22;10511;51.232;9.420;2024-02-26T03:08:44;3.20;99.90
20700;DHT22;10511;51.232;9.420;2024-02-26T03:11:13;3.20;99.90
20700;DHT22;10511;51.232;9.420;2024-02-26T03:13:42;3.20;99.90
20700;DHT22;10511;51.232;9.420;2024-02-26T03:16:09;3.30;99.90
20700;DHT22;10511;51.232;9.420;2024-02-26T03:18:35;3.30;99.90
20700;DHT22;10511;51.232;9.420;2024-02-26T03:21:03;3.30;99.90
20700;DHT22;10511;51.232;9.420;2024-02-26T03:23:30;3.30;99.90
20700;DHT22;10511;51.232;9.420;2024-02-26T03:25:58;3.20;99.90
20700;DHT22;10511;51.232;9.420;2024-02-26T03:28:25;3.20;99.90
20700;DHT22;10511;51.232;9.420;2024-02-26T03:30:53;3.20;99.90
20700;DHT22;10511;51.232;9.420;2024-02-26T03:33:20;3.20;99.90
20700;DHT22;10511;51.232;9.420;2024-02-26T03:35:47;3.20;99.90
20700;DHT22;10511;51.232;9.420;2024-02-26T03:38:13;3.20;99.90
20700;DHT22;10511;51.232;9.420;2024-02-26T03:40:40;3.20;99.90
20700;DHT22;10511;51.232;9.420;2024-02-26T03:43:07;3.30;99.90
20700;DHT22;10511;51.232;9.420;2024-02-26T03:45:34;3.30;99.90
20700;DHT22;10511;51.232;9.420;2024-02-26T03:48:02;3.40;99.90
20700;DHT22;10511;51.232;9.420;2024-02-26T03:50:29;3.40;99.90
20700;DHT22;10511;51.232;9.420;2024-02-26T03:52:56;3.40;99.90
20700;DHT22;10511;51.232;9.420;2024-02-26T03:55:23;3.40;99.90
20700;DHT22;10511;51.232;9.420;2024-02-26T03:57:51;3.50;99.90
20700;DHT22;10511;51.232;9.420;2024-02-26T04:00:18;3.50;99.90
20700;DHT22;10511;51.232;9.420;2024-02-26T04:02:46;3.50;99.90
20700;DHT22;10511;51.232;9.420;2024-02-26T04:05:15;3.50;99.90
20700;DHT22;10511;51.232;9.420;2024-02-26T04:07:42;3.60;99.90
20700;DHT22;10511;51.232;9.420;2024-02-26T04:10:09;3.60;99.90
20700;DHT22;10511;51.232;9.420;2024-02-26T04:12:38;3.60;99.90
20700;DHT22;10511;51.232;9.420;2024-02-26T04:15:06;3.60;99.90
20700;DHT22;10511;51.232;9.420;2024-02-26T04:17:33;3.60;99.90
20700;DHT22;10511;51.232;9.420;2024-02-26T04:20:00;3.60;99.90
20700;DHT22;10511;51.232;9.420;2024-02-26T04:22:29;3.60;99.90
20700;DHT22;10511;51.232;9.420;2024-02-26T04:24:56;3.70;99.90
20700;DHT22;10511;51.232;9.420;2024-02-26T04:27:23;3.70;99.90
20700;DHT22;10511;51.232;9.420;2024-02-26T04:29:50;3.70;99.90
20700;DHT22;10511;51.232;9.420;2024-02-26T04:32:17;3.70;99.90
20700;DHT22;10511;51.232;9.420;2024-02-26T04:34:44;3.70;99.90
20700;DHT22;10511;51.232;9.420;2024-02-26T04:37:10;3.80;99.90
20700;DHT22;10511;51.232;9.420;2024-02-26T04:39:38;3.90;99.90
20700;DHT22;10511;51.232;9.420;2024-02-26T04:42:05;3.90;99.90
20700;DHT22;10511;51.232;9.420;2024-02-26T04:44:32;3.90;99.90
20700;DHT22;10511;51.232;9.420;2024-02-26T04:46:59;3.90;99.90
20700;DHT22;10511;51.232;9.420;2024-02-26T04:49:27;3.90;99.90
20700;DHT22;10511;51.232;9.420;2024-02-26T04:51:54;3.90;99.90
20700;DHT22;10511;51.232;9.420;2024-02-26T04:54:21;3.90;99.90
20700;DHT22;10511;51.232;9.420;2024-02-26T04:56:49;3.90;99.90
20700;DHT22;10511;51.232;9.420;2024-02-26T04:59:16;3.90;99.90
20700;DHT22;10511;51.232;9.420;2024-02-26T05:01:44;3.90;99.90
20700;DHT22;10511;51.232;9.420;2024-02-26T05:04:11;3.90;99.90
20700;DHT22;10511;51.232;9.420;2024-02-26T05:06:37;3.90;99.90
20700;DHT22;10511;51.232;9.420;2024-02-26T05:09:04;3.90;99.90
20700;DHT22;10511;51.232;9.420;2024-02-26T05:11:31;3.90;99.90
20700;DHT22;10511;51.232;9.420;2024-02-26T05:13:59;3.90;99.90
20700;DHT22;10511;51.232;9.420;2024-02-26T05:16:26;3.90;99.90
20700;DHT22;10511;51.232;9.420;2024-02-26T05:18:55;3.90;99.90
20700;DHT22;10511;51.232;9.420;2024-02-26T05:21:22;3.80;99.90
20700;DHT22;10511;51.232;9.420;2024-02-26T05:23:49;3.80;99.90
20700;DHT22;10511;51.232;9.420;2024-02-26T05:26:20;3.80;99.90
20700;DHT22;10511;51.232;9.420;2024-02-26T05:28:47;3.80;99.90
20700;DHT22;10511;51.232;9.420;2024-02-26T05:31:15;3.80;99.90
20700;DHT22;10511;51.232;9.420;2024-02-26T05:33:42;3.80;99.90
20700;DHT22;10511;51.232;9.420;2024-02-26T05:36:09;3.80;99.90
20700;DHT22;10511;51.232;9.420;2024-02-26T05:38:36;3.80;99.90
20700;DHT22;10511;51.232;9.420;2024-02-26T05:41:03;3.90;99.90
20700;DHT22;10511;51.232;9.420;2024-02-26T05:43:31;3.90;99.90
20700;DHT22;10511;51.232;9.420;2024-02-26T05:45:58;3.80;99.90
20700;DHT22;10511;51.232;9.420;2024-02-26T05:48:26;3.90;99.90
20700;DHT22;10511;51.232;9.420;2024-02-26T05:50:53;3.90;99.90
20700;DHT22;10511;51.232;9.420;2024-02-26T05:53:19;3.90;99.90
20700;DHT22;10511;51.232;9.420;2024-02-26T05:55:46;4.00;99.90
20700;DHT22;10511;51.232;9.420;2024-02-26T05:58:13;3.90;99.90
20700;DHT22;10511;51.232;9.420;2024-02-26T06:00:40;4.00;99.90
20700;DHT22;10511;51.232;9.420;2024-02-26T06:03:07;4.00;99.90
20700;DHT22;10511;51.232;9.420;2024-02-26T06:05:35;4.00;99.90
20700;DHT22;10511;51.232;9.420;2024-02-26T06:08:02;4.00;99.90
20700;DHT22;10511;51.232;9.420;2024-02-26T06:10:29;3.90;99.90
20700;DHT22;10511;51.232;9.420;2024-02-26T06:12:56;4.00;99.90
20700;DHT22;10511;51.232;9.420;2024-02-26T06:15:22;3.90;99.90
20700;DHT22;10511;51.232;9.420;2024-02-26T06:17:49;4.00;99.90
20700;DHT22;10511;51.232;9.420;2024-02-26T06:20:16;4.00;99.90
20700;DHT22;10511;51.232;9.420;2024-02-26T06:22:44;4.00;99.90
20700;DHT22;10511;51.232;9.420;2024-02-26T06:25:11;4.00;99.90
20700;DHT22;10511;51.232;9.420;2024-02-26T06:27:38;3.90;99.90
20700;DHT22;10511;51.232;9.420;2024-02-26T06:30:06;3.90;99.90
20700;DHT22;10511;51.232;9.420;2024-02-26T06:32:34;4.00;99.90
20700;DHT22;10511;51.232;9.420;2024-02-26T06:35:01;4.00;99.90
20700;DHT22;10511;51.232;9.420;2024-02-26T06:37:32;4.00;99.90
20700;DHT22;10511;51.232;9.420;2024-02-26T06:40:00;4.10;99.90
20700;DHT22;10511;51.232;9.420;2024-02-26T06:42:29;4.10;99.90
20700;DHT22;10511;51.232;9.420;2024-02-26T06:44:56;4.10;99.90
20700;DHT22;10511;51.232;9.420;2024-02-26T06:47:23;4.20;99.90
20700;DHT22;10511;51.232;9.420;2024-02-26T06:49:49;4.20;99.90
20700;DHT22;10511;51.232;9.420;2024-02-26T06:52:16;4.20;99.90
20700;DHT22;10511;51.232;9.420;2024-02-26T06:54:43;4.20;99.90
20700;DHT22;10511;51.232;9.420;2024-02-26T06:57:11;4.30;99.90
20700;DHT22;10511;51.232;9.420;2024-02-26T06:59:38;4.30;99.90
20700;DHT22;10511;51.232;9.420;2024-02-26T07:02:05;4.40;99.90
20700;DHT22;10511;51.232;9.420;2024-02-26T07:04:32;4.40;99.90
20700;DHT22;10511;51.232;9.420;2024-02-26T07:06:59;4.40;99.90
20700;DHT22;10511;51.232;9.420;2024-02-26T07:09:26;4.50;99.90
20700;DHT22;10511;51.232;9.420;2024-02-26T07:11:53;4.50;99.90
20700;DHT22;10511;51.232;9.420;2024-02-26T07:14:21;4.50;99.90
20700;DHT22;10511;51.232;9.420;2024-02-26T07:16:48;4.50;99.90
20700;DHT22;10511;51.232;9.420;2024-02-26T07:19:14;4.60;99.90
20700;DHT22;10511;51.232;9.420;2024-02-26T07:21:41;4.60;99.90
20700;DHT22;10511;51.232;9.420;2024-02-26T07:24:08;4.60;99.90
20700;DHT22;10511;51.232;9.420;2024-02-26T07:26:35;4.60;99.90
20700;DHT22;10511;51.232;9.420;2024-02-26T07:29:02;4.60;99.90
20700;DHT22;10511;51.232;9.420;2024-02-26T07:31:31;4.70;99.90
20700;DHT22;10511;51.232;9.420;2024-02-26T07:33:57;4.70;99.90
20700;DHT22;10511;51.232;9.420;2024-02-26T07:36:24;4.80;99.90
20700;DHT22;10511;51.232;9.420;2024-02-26T07:38:51;4.80;99.90
20700;DHT22;10511;51.232;9.420;2024-02-26T07:41:19;4.80;99.90
20700;DHT22;10511;51.232;9.420;2024-02-26T07:43:46;4.80;99.90
20700;DHT22;10511;51.232;9.420;2024-02-26T07:46:14;4.80;99.90
20700;DHT22;10511;51.232;9.420;2024-02-26T07:48:42;4.80;99.90
20700;DHT22;10511;51.232;9.420;2024-02-26T07:51:11;4.80;99.90
20700;DHT22;10511;51.232;9.420;2024-02-26T07:53:38;4.80;99.90
20700;DHT22;10511;51.232;9.420;2024-02-26T07:56:06;4.90;99.90
20700;DHT22;10511;51.232;9.420;2024-02-26T07:58:33;4.90;99.90
20700;DHT22;10511;51.232;9.420;2024-02-26T08:01:00;4.90;99.90
20700;DHT22;10511;51.232;9.420;2024-02-26T08:03:26;5.00;99.90
20700;DHT22;10511;51.232;9.420;2024-02-26T08:05:55;5.10;99.90
20700;DHT22;10511;51.232;9.420;2024-02-26T08:08:22;5.10;99.90
20700;DHT22;10511;51.232;9.420;2024-02-26T08:10:49;5.20;99.90
20700;DHT22;10511;51.232;9.420;2024-02-26T08:13:17;5.20;99.90
20700;DHT22;10511;51.232;9.420;2024-02-26T08:15:44;5.30;99.90
20700;DHT22;10511;51.232;9.420;2024-02-26T08:18:11;5.30;99.90
20700;DHT22;10511;51.232;9.420;2024-02-26T08:20:37;5.40;99.90
20700;DHT22;10511;51.232;9.420;2024-02-26T08:23:05;5.50;99.90
20700;DHT22;10511;51.232;9.420;2024-02-26T08:25:32;5.50;99.90
20700;DHT22;10511;51.232;9.420;2024-02-26T08:27:59;5.60;99.90
20700;DHT22;10511;51.232;9.420;2024-02-26T08:30:26;5.70;99.90
20700;DHT22;10511;51.232;9.420;2024-02-26T08:32:53;5.70;99.90
20700;DHT22;10511;51.232;9.420;2024-02-26T08:35:20;5.80;99.90
20700;DHT22;10511;51.232;9.420;2024-02-26T08:37:47;5.90;99.90
20700;DHT22;10511;51.232;9.420;2024-02-26T08:40:15;5.90;99.90
20700;DHT22;10511;51.232;9.420;2024-02-26T08:42:43;6.00;99.90
20700;DHT22;10511;51.232;9.420;2024-02-26T08:45:10;6.00;99.90
20700;DHT22;10511;51.232;9.420;2024-02-26T08:47:36;6.10;99.90
20700;DHT22;10511;51.232;9.420;2024-02-26T08:50:04;6.10;99.90
20700;DHT22;10511;51.232;9.420;2024-02-26T08:52:32;6.20;99.90
20700;DHT22;10511;51.232;9.420;2024-02-26T08:54:59;6.20;99.90
20700;DHT22;10511;51.232;9.420;2024-02-26T08:57:27;6.20;99.90
20700;DHT22;10511;51.232;9.420;2024-02-26T08:59:54;6.20;99.90
20700;DHT22;10511;51.232;9.420;2024-02-26T09:02:21;6.20;99.90
20700;DHT22;10511;51.232;9.420;2024-02-26T09:04:48;6.30;99.90
20700;DHT22;10511;51.232;9.420;2024-02-26T09:07:16;6.30;99.90
20700;DHT22;10511;51.232;9.420;2024-02-26T09:09:43;6.30;99.90
20700;DHT22;10511;51.232;9.420;2024-02-26T09:12:10;6.30;99.90
20700;DHT22;10511;51.232;9.420;2024-02-26T09:14:38;6.40;99.90
20700;DHT22;10511;51.232;9.420;2024-02-26T09:17:05;6.40;99.90
20700;DHT22;10511;51.232;9.420;2024-02-26T09:19:33;6.40;99.90
20700;DHT22;10511;51.232;9.420;2024-02-26T09:22:00;6.50;99.90
20700;DHT22;10511;51.232;9.420;2024-02-26T09:24:26;6.50;99.90
20700;DHT22;10511;51.232;9.420;2024-02-26T09:26:53;6.60;99.90
20700;DHT22;10511;51.232;9.420;2024-02-26T09:29:20;6.60;99.90
20700;DHT22;10511;51.232;9.420;2024-02-26T09:31:48;6.70;99.90
20700;DHT22;10511;51.232;9.420;2024-02-26T09:34:15;6.70;99.90
20700;DHT22;10511;51.232;9.420;2024-02-26T09:36:42;6.80;99.90
20700;DHT22;10511;51.232;9.420;2024-02-26T09:39:09;6.90;99.90
20700;DHT22;10511;51.232;9.420;2024-02-26T09:41:37;7.00;99.90
20700;DHT22;10511;51.232;9.420;2024-02-26T09:44:05;7.00;99.90
20700;DHT22;10511;51.232;9.420;2024-02-26T09:46:33;7.10;99.90
20700;DHT22;10511;51.232;9.420;2024-02-26T09:49:01;7.20;99.90
20700;DHT22;10511;51.232;9.420;2024-02-26T09:51:29;7.20;99.90
20700;DHT22;10511;51.232;9.420;2024-02-26T09:53:56;7.20;99.90
20700;DHT22;10511;51.232;9.420;2024-02-26T09:56:26;7.30;99.90
20700;DHT22;10511;51.232;9.420;2024-02-26T09:58:54;7.40;99.90
20700;DHT22;10511;51.232;9.420;2024-02-26T10:01:22;7.60;99.90
20700;DHT22;10511;51.232;9.420;2024-02-26T10:03:54;7.70;99.90
20700;DHT22;10511;51.232;9.420;2024-02-26T10:06:23;7.90;99.90
20700;DHT22;10511;51.232;9.420;2024-02-26T10:08:51;7.90;99.90
20700;DHT22;10511;51.232;9.420;2024-02-26T10:11:19;8.00;99.90
20700;DHT22;10511;51.232;9.420;2024-02-26T10:13:47;8.10;99.90
20700;DHT22;10511;51.232;9.420;2024-02-26T10:16:14;8.10;99.90
20700;DHT22;10511;51.232;9.420;2024-02-26T10:18:46;8.10;99.90
20700;DHT22;10511;51.232;9.420;2024-02-26T10:21:13;8.20;99.90
20700;DHT22;10511;51.232;9.420;2024-02-26T10:23:43;8.20;99.90
20700;DHT22;10511;51.232;9.420;2024-02-26T10:26:10;8.20;99.90
20700;DHT22;10511;51.232;9.420;2024-02-26T10:28:37;8.40;99.90
20700;DHT22;10511;51.232;9.420;2024-02-26T10:31:04;8.40;99.90
20700;DHT22;10511;51.232;9.420;2024-02-26T10:33:33;8.50;99.90
20700;DHT22;10511;51.232;9.420;2024-02-26T10:36:01;8.50;99.90
20700;DHT22;10511;51.232;9.420;2024-02-26T10:38:28;8.60;99.90
20700;DHT22;10511;51.232;9.420;2024-02-26T10:40:56;8.70;99.90
20700;DHT22;10511;51.232;9.420;2024-02-26T10:43:23;8.80;99.90
20700;DHT22;10511;51.232;9.420;2024-02-26T10:45:50;8.90;99.90
20700;DHT22;10511;51.232;9.420;2024-02-26T10:48:17;8.80;99.90
20700;DHT22;10511;51.232;9.420;2024-02-26T10:50:44;8.90;99.90
20700;DHT22;10511;51.232;9.420;2024-02-26T10:53:15;9.00;99.90
20700;DHT22;10511;51.232;9.420;2024-02-26T10:55:48;9.00;99.90
20700;DHT22;10511;51.232;9.420;2024-02-26T10:58:16;9.00;99.90
20700;DHT22;10511;51.232;9.420;2024-02-26T11:00:43;9.00;99.90
20700;DHT22;10511;51.232;9.420;2024-02-26T11:03:14;8.90;99.90
20700;DHT22;10511;51.232;9.420;2024-02-26T11:05:41;8.80;99.90
20700;DHT22;10511;51.232;9.420;2024-02-26T11:08:10;8.70;99.90
20700;DHT22;10511;51.232;9.420;2024-02-26T11:10:38;8.70;99.90
20700;DHT22;10511;51.232;9.420;2024-02-26T11:13:06;8.70;99.90
20700;DHT22;10511;51.232;9.420;2024-02-26T11:15:37;8.70;99.90
20700;DHT22;10511;51.232;9.420;2024-02-26T11:18:04;8.70;99.90
20700;DHT22;10511;51.232;9.420;2024-02-26T11:20:32;8.70;99.90
20700;DHT22;10511;51.232;9.420;2024-02-26T11:23:00;8.70;99.90
20700;DHT22;10511;51.232;9.420;2024-02-26T11:25:27;8.70;99.90
20700;DHT22;10511;51.232;9.420;2024-02-26T11:27:56;8.70;99.90
20700;DHT22;10511;51.232;9.420;2024-02-26T11:30:26;8.70;99.90
20700;DHT22;10511;51.232;9.420;2024-02-26T11:32:56;8.70;99.90
20700;DHT22;10511;51.232;9.420;2024-02-26T11:35:24;8.70;99.90
20700;DHT22;10511;51.232;9.420;2024-02-26T11:37:53;8.70;99.90
20700;DHT22;10511;51.232;9.420;2024-02-26T11:40:22;8.70;99.90
20700;DHT22;10511;51.232;9.420;2024-02-26T11:42:50;8.70;99.90
20700;DHT22;10511;51.232;9.420;2024-02-26T11:45:50;8.60;99.90
20700;DHT22;10511;51.232;9.420;2024-02-26T11:48:23;8.60;99.90
20700;DHT22;10511;51.232;9.420;2024-02-26T11:50:51;8.60;99.90
20700;DHT22;10511;51.232;9.420;2024-02-26T11:53:20;8.60;99.90
20700;DHT22;10511;51.232;9.420;2024-02-26T11:55:46;8.60;99.90
20700;DHT22;10511;51.232;9.420;2024-02-26T11:58:13;8.50;99.90
20700;DHT22;10511;51.232;9.420;2024-02-26T12:00:40;8.40;99.90
20700;DHT22;10511;51.232;9.420;2024-02-26T12:03:07;8.40;99.90
20700;DHT22;10511;51.232;9.420;2024-02-26T12:05:39;8.40;99.90
20700;DHT22;10511;51.232;9.420;2024-02-26T12:08:07;8.30;99.90
20700;DHT22;10511;51.232;9.420;2024-02-26T12:10:36;8.30;99.90
20700;DHT22;10511;51.232;9.420;2024-02-26T12:13:06;8.30;99.90
20700;DHT22;10511;51.232;9.420;2024-02-26T12:15:36;8.30;99.90
20700;DHT22;10511;51.232;9.420;2024-02-26T12:18:05;8.30;99.90
20700;DHT22;10511;51.232;9.420;2024-02-26T12:20:33;8.40;99.90
20700;DHT22;10511;51.232;9.420;2024-02-26T12:23:02;8.40;99.90
20700;DHT22;10511;51.232;9.420;2024-02-26T12:25:30;8.40;99.90
20700;DHT22;10511;51.232;9.420;2024-02-26T12:27:58;8.40;99.90
20700;DHT22;10511;51.232;9.420;2024-02-26T12:30:26;8.40;99.90
20700;DHT22;10511;51.232;9.420;2024-02-26T12:32:55;8.40;99.90
20700;DHT22;10511;51.232;9.420;2024-02-26T12:35:23;8.40;99.90
20700;DHT22;10511;51.232;9.420;2024-02-26T12:37:50;8.40;99.90
20700;DHT22;10511;51.232;9.420;2024-02-26T12:40:19;8.40;99.90
20700;DHT22;10511;51.232;9.420;2024-02-26T12:42:46;8.40;99.90
20700;DHT22;10511;51.232;9.420;2024-02-26T12:45:14;8.40;99.90
20700;DHT22;10511;51.232;9.420;2024-02-26T12:47:42;8.40;99.90
20700;DHT22;10511;51.232;9.420;2024-02-26T12:50:10;8.40;99.90
20700;DHT22;10511;51.232;9.420;2024-02-26T12:52:40;8.50;99.90
20700;DHT22;10511;51.232;9.420;2024-02-26T12:55:07;8.50;99.90
20700;DHT22;10511;51.232;9.420;2024-02-26T12:57:38;8.50;99.90
20700;DHT22;10511;51.232;9.420;2024-02-26T13:00:05;8.60;99.90
20700;DHT22;10511;51.232;9.420;2024-02-26T13:02:35;8.70;99.90
20700;DHT22;10511;51.232;9.420;2024-02-26T13:05:03;8.70;99.90
20700;DHT22;10511;51.232;9.420;2024-02-26T13:07:30;8.70;99.90
20700;DHT22;10511;51.232;9.420;2024-02-26T13:09:58;8.70;99.90
20700;DHT22;10511;51.232;9.420;2024-02-26T13:12:26;8.70;99.90
20700;DHT22;10511;51.232;9.420;2024-02-26T13:15:00;8.80;99.90
20700;DHT22;10511;51.232;9.420;2024-02-26T13:17:27;8.80;99.90
20700;DHT22;10511;51.232;9.420;2024-02-26T13:19:54;8.80;99.90
20700;DHT22;10511;51.232;9.420;2024-02-26T13:22:21;8.80;99.90
20700;DHT22;10511;51.232;9.420;2024-02-26T13:24:53;8.80;99.90
20700;DHT22;10511;51.232;9.420;2024-02-26T13:27:21;8.80;99.90
20700;DHT22;10511;51.232;9.420;2024-02-26T13:29:48;8.80;99.90
20700;DHT22;10511;51.232;9.420;2024-02-26T13:32:16;8.70;99.90
20700;DHT22;10511;51.232;9.420;2024-02-26T13:34:43;8.70;99.90
20700;DHT22;10511;51.232;9.420;2024-02-26T13:37:10;8.70;99.90
20700;DHT22;10511;51.232;9.420;2024-02-26T13:39:38;8.70;99.90
20700;DHT22;10511;51.232;9.420;2024-02-26T13:42:08;8.70;99.90
20700;DHT22;10511;51.232;9.420;2024-02-26T13:44:37;8.70;99.90
20700;DHT22;10511;51.232;9.420;2024-02-26T13:47:06;8.70;99.90
20700;DHT22;10511;51.232;9.420;2024-02-26T13:49:34;8.80;99.90
20700;DHT22;10511;51.232;9.420;2024-02-26T13:52:01;8.80;99.90
20700;DHT22;10511;51.232;9.420;2024-02-26T13:54:27;8.80;99.90
20700;DHT22;10511;51.232;9.420;2024-02-26T13:56:54;8.80;99.90
20700;DHT22;10511;51.232;9.420;2024-02-26T13:59:21;8.80;99.90
20700;DHT22;10511;51.232;9.420;2024-02-26T14:01:48;8.80;99.90
20700;DHT22;10511;51.232;9.420;2024-02-26T14:04:15;8.80;99.90
20700;DHT22;10511;51.232;9.420;2024-02-26T14:06:43;8.80;99.90
20700;DHT22;10511;51.232;9.420;2024-02-26T14:09:11;8.80;99.90
20700;DHT22;10511;51.232;9.420;2024-02-26T14:11:44;8.80;99.90
20700;DHT22;10511;51.232;9.420;2024-02-26T14:14:11;8.80;99.90
20700;DHT22;10511;51.232;9.420;2024-02-26T14:16:38;8.70;99.90
20700;DHT22;10511;51.232;9.420;2024-02-26T14:19:05;8.80;99.90
20700;DHT22;10511;51.232;9.420;2024-02-26T14:21:32;8.80;99.90
20700;DHT22;10511;51.232;9.420;2024-02-26T14:24:00;8.70;99.90
20700;DHT22;10511;51.232;9.420;2024-02-26T14:26:27;8.70;99.90
20700;DHT22;10511;51.232;9.420;2024-02-26T14:28:54;8.70;99.90
20700;DHT22;10511;51.232;9.420;2024-02-26T14:31:21;8.70;99.90
20700;DHT22;10511;51.232;9.420;2024-02-26T14:33:48;8.70;99.90
20700;DHT22;10511;51.232;9.420;2024-02-26T14:36:18;8.60;99.90
20700;DHT22;10511;51.232;9.420;2024-02-26T14:38:46;8.60;99.90
20700;DHT22;10511;51.232;9.420;2024-02-26T14:41:14;8.70;99.90
20700;DHT22;10511;51.232;9.420;2024-02-26T14:43:42;8.70;99.90
20700;DHT22;10511;51.232;9.420;2024-02-26T14:46:08;8.70;99.90
20700;DHT22;10511;51.232;9.420;2024-02-26T14:48:35;8.70;99.90
20700;DHT22;10511;51.232;9.420;2024-02-26T14:51:02;8.80;99.90
20700;DHT22;10511;51.232;9.420;2024-02-26T14:53:32;8.70;99.90
20700;DHT22;10511;51.232;9.420;2024-02-26T14:55:59;8.70;99.90
20700;DHT22;10511;51.232;9.420;2024-02-26T14:58:27;8.80;99.90
20700;DHT22;10511;51.232;9.420;2024-02-26T15:00:54;8.70;99.90
20700;DHT22;10511;51.232;9.420;2024-02-26T15:03:21;8.70;99.90
20700;DHT22;10511;51.232;9.420;2024-02-26T15:05:48;8.70;99.90
20700;DHT22;10511;51.232;9.420;2024-02-26T15:08:14;8.70;99.90
20700;DHT22;10511;51.232;9.420;2024-02-26T15:10:42;8.70;99.90
20700;DHT22;10511;51.232;9.420;2024-02-26T15:13:13;8.70;99.90
20700;DHT22;10511;51.232;9.420;2024-02-26T15:15:42;8.60;99.90
20700;DHT22;10511;51.232;9.420;2024-02-26T15:18:08;8.60;99.90
20700;DHT22;10511;51.232;9.420;2024-02-26T15:20:37;8.60;99.90
20700;DHT22;10511;51.232;9.420;2024-02-26T15:23:04;8.50;99.90
20700;DHT22;10511;51.232;9.420;2024-02-26T15:25:32;8.50;99.90
20700;DHT22;10511;51.232;9.420;2024-02-26T15:27:58;8.60;99.90
20700;DHT22;10511;51.232;9.420;2024-02-26T15:30:25;8.50;99.90
20700;DHT22;10511;51.232;9.420;2024-02-26T15:32:56;8.50;99.90
20700;DHT22;10511;51.232;9.420;2024-02-26T15:35:23;8.50;99.90
20700;DHT22;10511;51.232;9.420;2024-02-26T15:37:50;8.50;99.90
20700;DHT22;10511;51.232;9.420;2024-02-26T15:40:17;8.40;99.90
20700;DHT22;10511;51.232;9.420;2024-02-26T15:42:45;8.40;99.90
20700;DHT22;10511;51.232;9.420;2024-02-26T15:45:12;8.40;99.90
20700;DHT22;10511;51.232;9.420;2024-02-26T15:47:41;8.30;99.90